Neosho, MO (64850)

11:29 AM CST on February 13, 2016 (GMT -0600)
APRSWXNET | | Change Station
CLOSE
Current Station
Personal Weather Station
Location: Neosho, MO
Elevation: 1023 ft
Nearby Weather Stations

Elev 1023 ft 36.87 °N, 94.37 °W | Updated 28 minutes ago

Clear
Clear
34 °F
Feels Like 29 °F
N
5
Wind Variable Wind from East
Gusts 12.0 mph

Today
High -- | Low -- °F
--% Chance of Precip.
Yesterday
High -- | Low -- °F
Precip. -- in
Pressure 30.47 in
Visibility 10.0 miles
Clouds Clear
Windchill 29 °F
Dew Point 7 °F
Humidity 31%
Rainfall in
Snow Depth Not available.
7:08 AM 5:55 PM
Waxing Crescent, 32% visible
METAR KHFJ 131715Z AUTO 08009KT 10SM CLR 00/M15 A3047 RMK AO2
Pressure 30.47 in
Visibility 10.0 miles
Clouds Clear
Windchill 29 °F
Dew Point 7 °F
Humidity 31%
Rainfall in
Snow Depth Not available.
7:08 AM 5:55 PM
Waxing Crescent, 32% visible
METAR KHFJ 131715Z AUTO 08009KT 10SM CLR 00/M15 A3047 RMK AO2

10-Day Weather Forecast

Almanac

Astronomy

Feb. 13, 2016 Rise Set
Actual Time
Civil Twilight
Nautical Twilight
Astronomical Twilight
Moon
Length of Visible Light
Length of Day
Tomorrow will be .
, % of the Moon is Illuminated

Today's Extremes

State Highs State Lows

Community

WunderPhotos

Upload Photos

1,892,620 photos uploaded!

WunderBlog® & News

Nearby

Air Quality

  Air Quality AQ Index Pollutant
Not available.

Snow Depth

Station Depth Elevation

Earthquake Activity

City Distance Mag. Time & Date
Minimum magnitude displayed is 2.5.

Coastal Water Temperatures

Place Temperature

Stations

Nearby Weather Stations

Station Location Temp. Windchill Dew Point Humidity Wind Precip. Elev Updated Type
                   

Watches & Warnings

There are currently no watches in effect.